Time;durP1;ratioP1;P1;durP2;ratioP2;P2;SDS_P1;SDS_P2;PMS_P1;PMS_P2;Temp;Humidity;BMP_temperature;BMP_pressure;BME280_temperature;BME280_humidity;BME280_pressure;Samples;Min_cycle;Max_cycle;Signal;HPM_P1;HPM_P2
2023/08/08 00:02:12;;;;;;;;;3.00;1.50;;;;;19.61;51.96;101349.72;5017675;28;45305;-69
2023/08/08 00:04:37;;;;;;;;;4.00;4.00;;;;;19.95;52.10;101404.94;5017727;28;45305;-68
2023/08/08 00:07:03;;;;;;;;;4.00;2.50;;;;;20.09;51.94;101422.97;5017475;28;46818;-67
2023/08/08 00:09:28;;;;;;;;;3.00;3.00;;;;;20.07;52.09;101430.41;5017235;28;45390;-68
2023/08/08 00:11:53;;;;;;;;;2.50;2.50;;;;;20.07;52.36;101425.00;5014296;28;46304;-68
2023/08/08 00:14:18;;;;;;;;;2.00;2.00;;;;;20.06;52.01;101428.75;5037442;28;45554;-68
2023/08/08 00:16:44;;;;;;;;;2.00;2.00;;;;;20.05;52.16;101418.97;5022861;28;45450;-69
2023/08/08 00:19:09;;;;;;;;;2.50;2.00;;;;;19.98;52.55;101410.78;5012122;28;45454;-69
2023/08/08 00:21:35;;;;;;;;;1.25;1.25;;;;;20.02;52.14;101422.88;5024481;28;45395;-70
2023/08/08 00:24:00;;;;;;;;;2.00;2.00;;;;;20.01;52.34;101423.88;5018019;28;45541;-68
2023/08/08 00:26:26;;;;;;;;;2.00;2.00;;;;;19.99;52.58;101427.81;4999447;28;47032;-69
2023/08/08 00:28:51;;;;;;;;;2.00;0.75;;;;;19.95;52.67;101407.63;4998926;28;53268;-69
2023/08/08 00:31:17;;;;;;;;;3.00;3.00;;;;;19.98;53.27;101421.56;5016835;28;45222;-69
2023/08/08 00:33:43;;;;;;;;;3.50;2.00;;;;;19.87;53.03;101399.66;5017186;28;45436;-68
2023/08/08 00:36:08;;;;;;;;;3.00;2.00;;;;;19.91;53.10;101414.44;5016312;28;45432;-68
2023/08/08 00:38:33;;;;;;;;;2.75;2.00;;;;;19.88;53.08;101410.25;5016970;28;45316;-71
2023/08/08 00:40:59;;;;;;;;;1.75;1.75;;;;;19.37;53.49;101340.03;5017109;28;45332;-68
2023/08/08 00:43:24;;;;;;;;;2.00;2.00;;;;;19.80;53.61;101410.34;5017124;28;45230;-71
2023/08/08 00:45:50;;;;;;;;;2.00;2.00;;;;;19.79;53.54;101407.84;4999006;28;47299;-70
2023/08/08 00:48:15;;;;;;;;;4.75;2.00;;;;;19.68;53.72;101393.81;5016999;28;45463;-70
2023/08/08 00:50:44;;;;;;;;;2.00;2.00;;;;;19.75;53.90;101402.81;5016247;28;45447;-69
2023/08/08 00:53:09;;;;;;;;;2.25;2.25;;;;;19.55;54.45;101366.66;5016146;28;45395;-70
2023/08/08 00:55:35;;;;;;;;;2.00;2.00;;;;;19.59;53.80;101367.09;5016756;28;45917;-70
2023/08/08 00:58:01;;;;;;;;;1.00;1.00;;;;;19.62;54.34;101373.00;5017169;28;45407;-69
2023/08/08 01:00:26;;;;;;;;;2.00;2.00;;;;;19.59;53.97;101369.81;5016516;28;45256;-69
2023/08/08 01:02:51;;;;;;;;;2.75;2.75;;;;;19.60;54.54;101384.97;5017391;28;45355;-69
2023/08/08 01:05:17;;;;;;;;;4.00;3.00;;;;;19.61;54.61;101392.88;4998934;28;50131;-69
2023/08/08 01:07:51;;;;;;;;;3.25;2.00;;;;;19.57;54.75;101383.47;5032249;28;45319;-70
2023/08/08 01:10:22;;;;;;;;;6.00;2.75;;;;;19.22;54.54;101332.97;5016687;28;45369;-69
2023/08/08 01:12:55;;;;;;;;;3.25;2.00;;;;;19.26;54.63;101345.91;4998181;28;45372;-69
2023/08/08 01:15:22;;;;;;;;;1.75;1.75;;;;;19.50;54.85;101382.53;5016055;28;47535;-68
2023/08/08 01:17:48;;;;;;;;;3.00;2.00;;;;;19.39;54.77;101369.50;5016654;28;45517;-70
2023/08/08 01:20:16;;;;;;;;;3.50;3.50;;;;;19.42;54.83;101377.22;5016647;28;45380;-69
2023/08/08 01:23:17;;;;;;;;;3.25;3.25;;;;;19.42;55.20;101380.78;5017066;28;45416;-68
2023/08/08 01:25:44;;;;;;;;;2.00;2.00;;;;;18.55;55.06;101245.75;5009389;28;46503;-69
2023/08/08 01:28:10;;;;;;;;;2.50;1.25;;;;;19.06;54.97;101334.00;4998750;28;45563;-68
2023/08/08 01:30:35;;;;;;;;;3.00;3.00;;;;;19.00;55.16;101314.00;5016332;28;45584;-70
2023/08/08 01:33:02;;;;;;;;;3.00;3.00;;;;;19.44;55.22;101391.38;5016829;28;45445;-69
2023/08/08 01:35:31;;;;;;;;;2.67;1.67;;;;;19.40;55.09;101376.56;5015929;28;48032;-70
2023/08/08 01:38:38;;;;;;;;;3.33;3.00;;;;;19.43;55.11;101384.31;5015187;28;45597;-70
2023/08/08 01:41:05;;;;;;;;;4.00;3.00;;;;;19.42;55.18;101377.22;4985762;28;45399;-69
2023/08/08 01:43:32;;;;;;;;;4.00;1.00;;;;;19.43;55.26;101376.22;5016327;28;45328;-69
2023/08/08 01:45:59;;;;;;;;;3.00;3.00;;;;;19.13;54.86;101330.38;5016230;28;46057;-70
2023/08/08 01:48:24;;;;;;;;;5.00;2.25;;;;;19.38;54.97;101381.31;5018247;28;45540;-69
2023/08/08 01:50:50;;;;;;;;;2.50;2.50;;;;;19.38;54.64;101370.53;5019527;28;45578;-69
2023/08/08 01:53:15;;;;;;;;;4.50;3.00;;;;;19.49;54.86;101388.94;5020123;28;45391;-69
2023/08/08 01:55:40;;;;;;;;;1.25;1.25;;;;;19.14;54.86;101336.59;5019579;28;46135;-69
2023/08/08 01:58:06;;;;;;;;;2.75;2.75;;;;;19.46;54.75;101389.34;5019681;28;45358;-69
2023/08/08 02:00:31;;;;;;;;;2.00;2.00;;;;;19.47;54.60;101385.63;5018912;28;50553;-69
2023/08/08 02:02:56;;;;;;;;;2.00;2.00;;;;;19.07;54.58;101320.34;5001940;28;45388;-72
2023/08/08 02:05:22;;;;;;;;;1.75;1.50;;;;;19.45;54.91;101379.56;5019358;28;45742;-69
2023/08/08 02:07:47;;;;;;;;;1.25;1.25;;;;;19.38;54.94;101371.38;5019700;28;45547;-69
2023/08/08 02:10:12;;;;;;;;;1.00;1.00;;;;;19.38;55.58;101367.84;5019145;28;45328;-68
2023/08/08 02:12:37;;;;;;;;;0.75;0.75;;;;;19.36;54.87;101361.78;5019587;28;45493;-69
2023/08/08 02:15:04;;;;;;;;;2.00;2.00;;;;;19.39;54.57;101358.72;5018343;28;65486;-70
2023/08/08 02:17:29;;;;;;;;;2.33;2.00;;;;;19.49;54.86;101371.94;5019297;28;45321;-70
2023/08/08 02:19:55;;;;;;;;;1.25;1.00;;;;;19.49;54.26;101370.06;5018833;28;53310;-69
2023/08/08 02:22:20;;;;;;;;;1.75;1.75;;;;;19.34;54.67;101347.66;5019476;28;45328;-69
2023/08/08 02:24:46;;;;;;;;;6.75;2.25;;;;;19.46;55.04;101370.47;5018975;28;45572;-69
2023/08/08 02:27:11;;;;;;;;;1.50;1.50;;;;;19.47;54.51;101361.34;5019206;28;45552;-69
2023/08/08 02:29:37;;;;;;;;;1.00;1.00;;;;;19.42;55.01;101347.56;5000902;28;45595;-68
2023/08/08 02:32:03;;;;;;;;;1.25;1.00;;;;;19.55;55.25;101355.88;5019422;28;45539;-70
2023/08/08 02:34:28;;;;;;;;;1.50;1.00;;;;;19.45;55.48;101336.44;5019081;28;45238;-70
2023/08/08 02:36:53;;;;;;;;;2.25;2.25;;;;;19.54;54.79;101348.81;5019300;28;45562;-69
2023/08/08 02:39:19;;;;;;;;;2.00;2.00;;;;;19.49;54.99;101337.72;5018564;28;48984;-70
2023/08/08 02:41:44;;;;;;;;;1.50;1.50;;;;;19.41;54.93;101338.63;5019400;28;45346;-69
2023/08/08 02:44:10;;;;;;;;;1.00;1.00;;;;;19.49;55.00;101343.09;5018553;28;45304;-70
2023/08/08 02:46:37;;;;;;;;;3.25;3.25;;;;;19.42;55.14;101339.47;5001127;28;45868;-67
2023/08/08 02:49:03;;;;;;;;;2.00;2.00;;;;;19.31;55.66;101313.00;5019004;28;45509;-69
2023/08/08 02:51:29;;;;;;;;;2.25;1.00;;;;;19.41;55.22;101333.25;5001027;28;45402;-68
2023/08/08 02:53:54;;;;;;;;;2.50;1.75;;;;;18.71;54.90;101233.19;5018842;28;45532;-68
2023/08/08 02:56:19;;;;;;;;;1.75;1.75;;;;;19.41;55.64;101360.22;5018144;28;59659;-69
2023/08/08 02:58:44;;;;;;;;;2.00;1.00;;;;;19.29;55.35;101347.41;5018275;28;45403;-70
2023/08/08 03:01:10;;;;;;;;;3.00;2.00;;;;;19.07;55.35;101314.13;5000892;28;45405;-70
2023/08/08 03:03:36;;;;;;;;;3.75;2.00;;;;;19.29;55.42;101356.31;5018610;28;46331;-69
2023/08/08 03:06:02;;;;;;;;;1.75;1.00;;;;;19.20;55.35;101345.81;5018811;28;45500;-69
2023/08/08 03:08:27;;;;;;;;;3.75;3.50;;;;;19.23;55.99;101359.78;5000708;28;45388;-69
2023/08/08 03:10:53;;;;;;;;;1.25;1.25;;;;;18.91;56.00;101309.75;5019115;28;45337;-69
2023/08/08 03:13:19;;;;;;;;;1.25;1.25;;;;;19.30;55.89;101357.16;5018105;28;46257;-69
2023/08/08 03:15:45;;;;;;;;;1.67;1.33;;;;;19.29;55.66;101355.50;5018404;28;45185;-69
2023/08/08 03:18:10;;;;;;;;;3.00;2.00;;;;;19.22;55.52;101338.38;5018469;28;45545;-69
2023/08/08 03:20:35;;;;;;;;;1.50;1.50;;;;;19.31;55.72;101346.19;5018812;28;45301;-69
2023/08/08 03:23:01;;;;;;;;;1.25;1.25;;;;;19.19;55.59;101334.19;4999864;28;64624;-69
2023/08/08 03:25:26;;;;;;;;;2.00;2.00;;;;;19.24;56.14;101352.53;5018096;28;45469;-68
2023/08/08 03:27:51;;;;;;;;;2.25;2.25;;;;;18.87;56.38;101286.06;5000563;28;45372;-68
2023/08/08 03:30:17;;;;;;;;;1.50;1.50;;;;;19.27;56.18;101354.84;5018307;28;45373;-68
2023/08/08 03:32:42;;;;;;;;;2.00;2.00;;;;;19.25;56.50;101348.81;5017951;28;45694;-69
2023/08/08 03:35:09;;;;;;;;;2.00;2.00;;;;;19.14;56.28;101331.22;5018140;28;45322;-69
2023/08/08 03:37:34;;;;;;;;;0.00;0.00;;;;;19.23;56.06;101342.75;5018273;28;45523;-70
2023/08/08 03:40:00;;;;;;;;;5.00;2.25;;;;;19.19;56.38;101338.75;5000161;28;45517;-70
2023/08/08 03:42:25;;;;;;;;;2.00;2.00;;;;;19.20;56.23;101351.19;5018047;28;46675;-70
2023/08/08 03:44:50;;;;;;;;;2.00;2.00;;;;;19.27;56.80;101362.94;4999763;28;54101;-70
2023/08/08 03:47:16;;;;;;;;;3.00;3.00;;;;;19.25;56.90;101359.59;5018106;28;45316;-69
2023/08/08 03:49:41;;;;;;;;;2.50;2.50;;;;;19.17;56.53;101338.94;5000287;28;45599;-71
2023/08/08 03:52:07;;;;;;;;;5.00;2.00;;;;;19.31;56.08;101365.06;5017901;28;46923;-70
2023/08/08 03:54:32;;;;;;;;;2.25;1.25;;;;;18.63;56.63;101247.59;5017704;28;45432;-69
2023/08/08 03:56:57;;;;;;;;;4.00;3.50;;;;;19.27;56.76;101357.53;5018033;28;45766;-68
2023/08/08 03:59:23;;;;;;;;;3.00;2.25;;;;;19.35;56.74;101377.13;5017515;28;45474;-69
2023/08/08 04:01:48;;;;;;;;;1.25;1.25;;;;;19.35;56.47;101376.31;5017298;28;47091;-68
2023/08/08 04:04:14;;;;;;;;;2.25;2.00;;;;;19.23;56.69;101364.31;5017591;28;45541;-69
2023/08/08 04:06:39;;;;;;;;;4.00;3.00;;;;;19.25;56.58;101370.38;5017903;28;45260;-70
2023/08/08 04:09:06;;;;;;;;;3.00;3.00;;;;;19.24;56.92;101382.16;5017812;28;45376;-69
2023/08/08 04:11:32;;;;;;;;;2.25;2.25;;;;;19.24;56.77;101374.09;5016558;28;45858;-69
2023/08/08 04:13:57;;;;;;;;;1.00;1.00;;;;;19.08;56.85;101356.22;5017264;28;45424;-68
2023/08/08 04:16:22;;;;;;;;;2.00;2.00;;;;;19.20;57.13;101378.97;5017525;28;45442;-69
2023/08/08 04:18:48;;;;;;;;;1.00;1.00;;;;;19.22;57.20;101381.50;5018019;28;45355;-69
2023/08/08 04:21:13;;;;;;;;;4.00;4.00;;;;;19.12;57.29;101357.53;5017597;28;49244;-70
2023/08/08 04:23:38;;;;;;;;;1.25;1.00;;;;;19.09;57.40;101356.03;5017115;28;52900;-70
2023/08/08 04:26:04;;;;;;;;;7.33;6.33;;;;;19.04;57.21;101361.16;5017244;28;45308;-69
2023/08/08 04:28:29;;;;;;;;;2.00;2.00;;;;;19.11;57.48;101372.03;5017337;28;45364;-69
2023/08/08 04:30:54;;;;;;;;;3.67;3.00;;;;;19.00;57.72;101354.44;4999287;28;49149;-70
2023/08/08 04:33:20;;;;;;;;;5.00;5.00;;;;;19.03;57.97;101367.56;5017046;28;45414;-70
2023/08/08 04:35:45;;;;;;;;;3.00;3.00;;;;;18.80;57.88;101329.03;4999484;28;45337;-68
2023/08/08 04:38:10;;;;;;;;;1.75;1.75;;;;;19.08;58.60;101370.53;5017570;28;45528;-69
2023/08/08 04:40:35;;;;;;;;;4.00;3.00;;;;;19.09;58.11;101369.50;5016376;28;55929;-67
2023/08/08 04:43:01;;;;;;;;;3.00;2.00;;;;;18.99;57.84;101350.06;5017024;28;45341;-70
2023/08/08 04:45:27;;;;;;;;;1.00;1.00;;;;;19.00;58.29;101365.22;5017004;28;45326;-70
2023/08/08 04:47:52;;;;;;;;;3.67;3.00;;;;;18.70;58.37;101325.78;5017302;28;45606;-70
2023/08/08 04:50:17;;;;;;;;;2.33;1.00;;;;;18.99;58.04;101377.00;5035900;28;46168;-71
2023/08/08 04:52:43;;;;;;;;;2.00;2.00;;;;;18.72;58.68;101324.59;5036880;28;45470;-68
2023/08/08 04:55:08;;;;;;;;;2.50;2.00;;;;;19.08;58.27;101375.09;5016186;28;55495;-71
2023/08/08 04:57:34;;;;;;;;;3.25;3.25;;;;;19.07;57.99;101371.56;5027862;28;45281;-68
2023/08/08 05:00:04;;;;;;;;;4.33;3.00;;;;;19.02;58.08;101371.28;5017778;28;46497;-69
2023/08/08 05:02:29;;;;;;;;;3.00;2.50;;;;;19.03;58.09;101370.25;5016510;28;45732;-69
2023/08/08 05:04:55;;;;;;;;;1.75;1.75;;;;;18.72;58.24;101311.13;5016996;28;45392;-69
2023/08/08 05:07:20;;;;;;;;;4.00;1.75;;;;;19.03;58.26;101372.13;5023301;28;45423;-68
2023/08/08 05:09:46;;;;;;;;;1.50;1.50;;;;;19.00;58.29;101361.69;5016738;28;45445;-69
2023/08/08 05:12:11;;;;;;;;;5.00;3.50;;;;;19.06;58.10;101364.50;5016452;28;45547;-69
2023/08/08 05:14:36;;;;;;;;;4.00;3.00;;;;;18.66;58.28;101294.84;5016346;28;45570;-69
2023/08/08 05:17:03;;;;;;;;;3.00;2.00;;;;;19.02;58.33;101347.03;5016878;28;45484;-69
2023/08/08 05:19:28;;;;;;;;;3.00;2.25;;;;;19.08;58.35;101365.16;5016341;28;45730;-69
2023/08/08 05:21:53;;;;;;;;;3.00;2.00;;;;;18.71;58.17;101304.06;5000136;28;45534;-69
2023/08/08 05:24:18;;;;;;;;;3.25;2.25;;;;;19.18;58.07;101366.72;5020005;28;45529;-69
2023/08/08 05:26:44;;;;;;;;;3.25;2.75;;;;;19.14;58.28;101353.63;5020375;28;47461;-69
2023/08/08 05:29:09;;;;;;;;;4.00;3.75;;;;;19.18;58.37;101362.16;5019068;28;59341;-69
2023/08/08 05:31:34;;;;;;;;;5.00;5.00;;;;;19.08;58.13;101346.28;5019973;28;48131;-69
2023/08/08 05:34:00;;;;;;;;;3.50;3.50;;;;;19.17;58.18;101360.50;5019319;28;45254;-70
2023/08/08 05:36:25;;;;;;;;;3.00;3.00;;;;;19.26;58.23;101367.47;5020146;28;45497;-68
2023/08/08 05:38:50;;;;;;;;;6.00;3.00;;;;;19.25;58.27;101368.50;5019573;28;46643;-71
2023/08/08 05:41:15;;;;;;;;;4.75;4.75;;;;;19.27;58.55;101368.31;5019525;28;45455;-69
2023/08/08 05:43:41;;;;;;;;;5.00;4.00;;;;;19.30;58.29;101357.16;5019005;28;52595;-69
2023/08/08 05:46:06;;;;;;;;;4.00;4.00;;;;;18.97;58.00;101298.22;5002061;28;45698;-69
2023/08/08 05:48:31;;;;;;;;;3.67;3.67;;;;;19.30;58.12;101355.31;5019247;28;51000;-70
2023/08/08 05:50:58;;;;;;;;;3.33;3.33;;;;;19.47;58.14;101371.28;5019314;28;55301;-71
2023/08/08 05:53:24;;;;;;;;;3.00;3.00;;;;;19.51;57.85;101378.81;5019904;28;45311;-69
2023/08/08 05:55:49;;;;;;;;;3.75;3.75;;;;;19.27;58.00;101335.97;5019903;28;45529;-69
2023/08/08 05:58:15;;;;;;;;;4.25;3.00;;;;;19.41;57.92;101360.22;5019223;28;45891;-70
2023/08/08 06:00:40;;;;;;;;;5.75;4.50;;;;;19.57;57.88;101385.34;5019579;28;45416;-69
2023/08/08 06:03:06;;;;;;;;;3.25;3.25;;;;;19.63;57.91;101385.44;5019430;28;58480;-71
2023/08/08 06:05:31;;;;;;;;;8.00;7.00;;;;;19.70;57.70;101389.06;5019951;28;45366;-69
2023/08/08 06:07:57;;;;;;;;;5.00;4.00;;;;;19.73;57.39;101374.34;5019074;28;46550;-69
2023/08/08 06:10:22;;;;;;;;;3.00;3.00;;;;;19.90;57.47;101383.91;5018906;28;57899;-69
2023/08/08 06:12:48;;;;;;;;;4.50;3.00;;;;;19.94;56.81;101363.59;5001811;28;45317;-69
2023/08/08 06:15:13;;;;;;;;;3.25;3.25;;;;;20.17;56.91;101371.53;5018460;28;52649;-70
2023/08/08 06:17:39;;;;;;;;;2.00;2.00;;;;;20.33;56.17;101374.00;5001225;28;46423;-69
2023/08/08 06:20:06;;;;;;;;;2.25;2.25;;;;;20.52;55.94;101380.66;5018960;28;45268;-70
2023/08/08 06:22:32;;;;;;;;;6.33;4.00;;;;;20.67;55.55;101369.78;5019037;28;45516;-71
2023/08/08 06:24:57;;;;;;;;;4.00;2.50;;;;;21.32;54.43;101379.41;5019210;28;45443;-68
2023/08/08 06:27:22;;;;;;;;;2.00;2.00;;;;;21.98;52.10;101401.38;5019274;28;49209;-69
2023/08/08 06:29:47;;;;;;;;;1.25;1.25;;;;;22.39;50.76;101379.63;5018780;28;45529;-69
2023/08/08 06:32:13;;;;;;;;;1.50;1.50;;;;;22.91;49.17;101391.59;5019210;28;45646;-69
2023/08/08 06:34:38;;;;;;;;;3.00;2.00;;;;;23.21;48.46;101372.13;5017672;28;54723;-68
2023/08/08 06:37:03;;;;;;;;;4.50;3.00;;;;;23.45;48.38;101378.78;5019013;28;46189;-70
2023/08/08 06:39:29;;;;;;;;;3.50;3.25;;;;;23.50;47.07;101368.94;5018705;28;45313;-70
2023/08/08 06:41:54;;;;;;;;;2.75;2.50;;;;;23.62;47.38;101360.97;5019053;28;45435;-69
2023/08/08 06:44:21;;;;;;;;;4.00;2.00;;;;;24.28;45.51;101390.53;5000806;28;45407;-72
2023/08/08 06:46:46;;;;;;;;;1.25;1.25;;;;;24.79;42.59;101382.22;5000727;28;48670;-70
2023/08/08 06:49:11;;;;;;;;;2.00;2.00;;;;;24.75;41.50;101287.72;5018607;28;45532;-70
2023/08/08 06:51:37;;;;;;;;;1.00;1.00;;;;;25.73;40.51;101377.53;5018975;28;45503;-69
2023/08/08 06:54:03;;;;;;;;;3.75;2.50;;;;;26.09;40.38;101379.38;5018662;28;45591;-69
2023/08/08 06:56:29;;;;;;;;;2.00;1.00;;;;;26.32;39.55;101384.91;5018658;28;46432;-69
2023/08/08 06:58:54;;;;;;;;;1.00;1.00;;;;;26.26;38.81;101374.94;5017842;28;45400;-68
2023/08/08 07:01:19;;;;;;;;;1.00;1.00;;;;;26.12;38.90;101376.19;5018373;28;45466;-69
2023/08/08 07:03:46;;;;;;;;;1.00;1.00;;;;;25.72;39.01;101359.53;5018627;28;45302;-69
2023/08/08 07:06:11;;;;;;;;;2.50;2.50;;;;;25.60;39.39;101383.09;5017843;28;46457;-69
2023/08/08 07:08:39;;;;;;;;;1.00;1.00;;;;;25.26;39.29;101370.94;5000300;28;46147;-68
2023/08/08 07:11:05;;;;;;;;;1.25;1.25;;;;;24.96;39.45;101370.78;5018362;28;45278;-69
2023/08/08 07:13:31;;;;;;;;;0.75;0.75;;;;;24.76;39.35;101388.09;5017699;28;45557;-69
2023/08/08 07:15:56;;;;;;;;;2.00;2.00;;;;;24.60;40.48;101393.25;4999942;28;46545;-70
2023/08/08 07:18:21;;;;;;;;;2.00;2.00;;;;;24.35;40.70;101366.06;5018131;28;45332;-69
2023/08/08 07:20:47;;;;;;;;;3.00;2.50;;;;;24.28;40.08;101374.22;5018275;28;45911;-69
2023/08/08 07:23:12;;;;;;;;;2.50;1.00;;;;;24.27;39.40;101373.41;5018032;28;45312;-69
2023/08/08 07:25:37;;;;;;;;;1.00;1.00;;;;;24.13;40.66;101368.25;5018342;28;45368;-68
2023/08/08 07:28:03;;;;;;;;;1.00;1.00;;;;;23.68;39.47;101311.25;5017989;28;45266;-68
2023/08/08 07:30:28;;;;;;;;;2.75;1.75;;;;;23.72;39.80;101347.78;5018048;28;45331;-71
2023/08/08 07:32:54;;;;;;;;;2.00;1.00;;;;;23.78;40.74;101365.09;5018463;28;45530;-68
2023/08/08 07:35:19;;;;;;;;;2.00;2.00;;;;;23.67;41.12;101358.47;5017353;28;61167;-70
2023/08/08 07:37:45;;;;;;;;;6.00;4.00;;;;;23.79;41.23;101369.47;5018028;28;45485;-69
2023/08/08 07:40:17;;;;;;;;;3.50;2.00;;;;;23.48;41.52;101286.91;5017499;28;45234;-69
2023/08/08 07:42:44;;;;;;;;;3.00;1.25;;;;;23.89;41.32;101308.22;5018421;28;45599;-69
2023/08/08 07:45:09;;;;;;;;;2.00;1.00;;;;;24.16;39.97;101300.72;5016180;28;45717;-68
2023/08/08 07:47:34;;;;;;;;;4.00;2.00;;;;;24.90;39.87;101367.06;5017899;28;45423;-69
2023/08/08 07:50:00;;;;;;;;;1.00;1.00;;;;;25.62;38.62;101343.69;4999989;28;45538;-68
2023/08/08 07:52:25;;;;;;;;;2.75;2.75;;;;;26.47;37.28;101353.69;5018010;28;45439;-69
2023/08/08 07:54:51;;;;;;;;;2.00;1.00;;;;;27.21;36.23;101343.97;5017448;28;46446;-68
2023/08/08 07:57:16;;;;;;;;;2.00;1.00;;;;;27.90;35.71;101361.28;5017299;28;45414;-67
2023/08/08 07:59:41;;;;;;;;;2.00;2.00;;;;;28.41;34.67;101352.13;4999237;28;49907;-68
2023/08/08 08:02:07;;;;;;;;;1.50;1.50;;;;;29.03;33.41;101359.41;5000119;28;45579;-70
2023/08/08 08:04:33;;;;;;;;;1.25;1.25;;;;;29.08;33.07;101280.13;4999646;28;46921;-68
2023/08/08 08:07:01;;;;;;;;;2.00;2.00;;;;;29.75;32.18;101329.16;5016684;28;45378;-70
2023/08/08 08:09:27;;;;;;;;;4.00;1.00;;;;;29.94;31.51;101294.81;4999612;28;45326;-68
2023/08/08 08:11:52;;;;;;;;;3.00;2.00;;;;;30.88;30.67;101345.59;5017411;28;45472;-68
2023/08/08 08:14:17;;;;;;;;;1.25;1.25;;;;;31.13;28.45;101339.41;5016966;28;45887;-69
2023/08/08 08:16:45;;;;;;;;;3.25;1.00;;;;;31.21;28.74;101344.41;5017379;28;45479;-69
2023/08/08 08:19:10;;;;;;;;;2.00;1.00;;;;;31.00;29.27;101340.69;5017535;28;45327;-69
2023/08/08 08:21:35;;;;;;;;;2.00;1.00;;;;;30.77;29.59;101352.91;4999681;28;45239;-69
2023/08/08 08:24:02;;;;;;;;;2.50;1.50;;;;;30.88;29.98;101345.59;5017255;28;45563;-69
2023/08/08 08:26:27;;;;;;;;;1.00;1.00;;;;;31.03;29.04;101340.16;5016766;28;45470;-69
2023/08/08 08:28:53;;;;;;;;;1.00;1.00;;;;;31.24;28.54;101343.09;5016950;28;45328;-70
2023/08/08 08:31:18;;;;;;;;;2.00;2.00;;;;;31.28;29.00;101342.28;4999611;28;45506;-68
2023/08/08 08:33:43;;;;;;;;;2.00;1.00;;;;;31.42;28.02;101326.09;5016461;28;64215;-68
2023/08/08 08:36:09;;;;;;;;;1.00;1.00;;;;;31.67;28.52;101333.63;5016530;28;61468;-68
2023/08/08 08:38:34;;;;;;;;;2.50;1.00;;;;;32.08;27.09;101329.06;5017288;28;45276;-68
2023/08/08 08:41:02;;;;;;;;;1.00;1.00;;;;;32.35;27.01;101328.84;5017240;28;45392;-68
2023/08/08 08:43:27;;;;;;;;;0.50;0.50;;;;;32.64;25.60;101315.34;5017015;28;45691;-69
2023/08/08 08:45:54;;;;;;;;;2.00;2.00;;;;;32.90;24.44;101336.25;5016809;28;45241;-69
2023/08/08 08:48:21;;;;;;;;;1.25;1.25;;;;;32.76;26.23;101329.63;5017557;28;45272;-68
2023/08/08 08:50:49;;;;;;;;;2.00;2.00;;;;;33.03;25.55;101342.25;5016958;28;45533;-68
2023/08/08 08:53:15;;;;;;;;;2.00;1.00;;;;;32.84;25.51;101293.31;5016592;28;46283;-69
2023/08/08 08:55:42;;;;;;;;;1.00;1.00;;;;;33.05;25.02;101340.91;5016466;28;45791;-69
2023/08/08 08:58:09;;;;;;;;;1.00;1.00;;;;;33.15;25.10;101340.88;5016347;28;45337;-69
2023/08/08 09:00:35;;;;;;;;;4.00;3.00;;;;;33.44;24.88;101346.59;5016414;28;45520;-69
2023/08/08 09:03:01;;;;;;;;;0.00;0.00;;;;;33.62;24.48;101341.50;5016347;28;45964;-69
2023/08/08 09:05:27;;;;;;;;;2.50;0.50;;;;;33.59;24.23;101345.66;5015952;28;45502;-67
2023/08/08 09:07:52;;;;;;;;;1.00;1.00;;;;;33.04;24.30;101211.69;5016517;28;45301;-68
2023/08/08 09:10:18;;;;;;;;;3.33;3.33;;;;;33.82;24.21;101295.34;5016696;28;45621;-67
2023/08/08 09:12:45;;;;;;;;;1.00;1.00;;;;;34.38;23.38;101338.31;5015991;28;45949;-68
2023/08/08 09:15:11;;;;;;;;;2.00;2.00;;;;;34.46;23.26;101324.72;5015245;28;45266;-69
2023/08/08 09:17:41;;;;;;;;;0.00;0.00;;;;;35.01;23.44;101333.56;5016342;28;45540;-69
2023/08/08 09:20:07;;;;;;;;;1.75;1.00;;;;;35.39;22.38;101330.13;4998637;28;45302;-69
2023/08/08 09:22:33;;;;;;;;;0.50;0.50;;;;;35.05;22.19;101331.06;5015447;28;45911;-69
2023/08/08 09:24:58;;;;;;;;;0.50;0.50;;;;;35.06;22.35;101333.53;5015078;28;45455;-69
2023/08/08 09:27:23;;;;;;;;;1.00;1.00;;;;;35.64;22.58;101310.41;5014958;28;45505;-69
2023/08/08 09:29:49;;;;;;;;;1.00;1.00;;;;;36.50;21.29;101311.88;5015190;28;45401;-69
2023/08/08 09:32:17;;;;;;;;;1.00;1.00;;;;;37.46;20.52;101325.00;5013588;28;46261;-67
2023/08/08 09:34:43;;;;;;;;;0.00;0.00;;;;;38.05;19.44;101307.28;5015574;28;45535;-69
2023/08/08 09:37:10;;;;;;;;;0.00;0.00;;;;;38.74;18.29;101295.78;5010153;28;45501;-83
2023/08/08 09:39:36;;;;;;;;;0.00;0.00;;;;;39.51;17.75;101308.31;5009401;28;45961;-69
2023/08/08 09:42:03;;;;;;;;;1.00;1.00;;;;;40.29;17.69;101311.13;4996247;28;47147;-69
2023/08/08 09:44:29;;;;;;;;;2.00;2.00;;;;;40.87;17.40;101316.06;5015393;28;45626;-69
2023/08/08 09:46:56;;;;;;;;;1.00;1.00;;;;;41.06;16.93;101309.25;4997712;28;45777;-69
2023/08/08 09:49:22;;;;;;;;;2.00;0.67;;;;;40.83;17.53;101301.16;5016237;28;45319;-69
2023/08/08 09:51:48;;;;;;;;;0.00;0.00;;;;;40.85;16.82;101292.44;5016200;28;45638;-68
2023/08/08 09:54:14;;;;;;;;;0.00;0.00;;;;;41.03;17.27;101296.78;5016126;28;45533;-68
2023/08/08 09:56:40;;;;;;;;;0.00;0.00;;;;;41.07;17.01;101300.56;5016129;28;45393;-69
2023/08/08 09:59:07;;;;;;;;;1.00;1.00;;;;;40.89;16.62;101291.47;5016000;28;45335;-69
2023/08/08 10:01:32;;;;;;;;;0.33;0.33;;;;;40.93;17.24;101286.84;5015759;28;46718;-71
2023/08/08 10:03:59;;;;;;;;;0.00;0.00;;;;;40.98;17.63;101300.59;5015903;28;45465;-70
2023/08/08 10:06:25;;;;;;;;;0.00;0.00;;;;;40.65;17.16;101291.19;5016020;28;45294;-68
2023/08/08 10:08:51;;;;;;;;;1.00;1.00;;;;;40.13;17.58;101283.78;5017104;28;45550;-70
2023/08/08 10:11:18;;;;;;;;;1.00;1.00;;;;;38.91;18.36;101284.75;5019344;28;45551;-69
2023/08/08 10:13:50;;;;;;;;;1.00;1.00;;;;;37.94;19.43;101286.44;5019027;28;45349;-68
2023/08/08 10:16:18;;;;;;;;;2.33;1.00;;;;;37.11;20.47;101294.09;5019356;28;45403;-68
2023/08/08 10:18:45;;;;;;;;;1.67;1.67;;;;;36.00;21.36;101279.47;5019022;28;45328;-70
2023/08/08 10:21:12;;;;;;;;;1.00;1.00;;;;;34.52;23.28;101273.03;5019083;28;46660;-68
2023/08/08 10:23:39;;;;;;;;;2.00;2.00;;;;;33.76;24.32;101281.88;5018845;28;45502;-69
2023/08/08 10:26:05;;;;;;;;;1.00;1.00;;;;;33.28;25.03;101271.38;5019533;28;45297;-69
2023/08/08 10:28:33;;;;;;;;;1.00;1.00;;;;;32.53;25.81;101283.41;5000821;28;45558;-68
2023/08/08 10:31:01;;;;;;;;;0.25;0.25;;;;;32.08;26.29;101285.06;5018814;28;46135;-69
2023/08/08 10:33:43;;;;;;;;;1.67;1.33;;;;;31.44;27.28;101268.97;5018775;28;45460;-67
2023/08/08 10:36:09;;;;;;;;;1.00;1.00;;;;;30.95;27.87;101272.03;5019088;28;45305;-69
2023/08/08 10:38:50;;;;;;;;;1.00;1.00;;;;;30.40;29.24;101278.78;5019023;28;45274;-69
2023/08/08 10:41:20;;;;;;;;;3.00;2.00;;;;;29.98;29.16;101257.56;5018439;28;46541;-68
2023/08/08 10:43:51;;;;;;;;;1.00;1.00;;;;;29.89;29.61;101275.59;5018397;28;45479;-68
2023/08/08 10:46:43;;;;;;;;;1.25;1.00;;;;;29.65;29.85;101274.25;5018688;28;45478;-69
2023/08/08 10:49:11;;;;;;;;;1.00;1.00;;;;;29.36;30.16;101268.94;5015852;28;45534;-68
2023/08/08 10:51:39;;;;;;;;;3.00;1.67;;;;;29.24;30.25;101270.19;5018585;28;45703;-68
2023/08/08 10:54:05;;;;;;;;;1.00;1.00;;;;;29.14;30.85;101268.13;5001129;28;45321;-68
2023/08/08 10:56:31;;;;;;;;;1.33;1.33;;;;;29.04;30.96;101273.50;5018547;28;45186;-68
2023/08/08 10:58:57;;;;;;;;;0.50;0.50;;;;;28.90;30.70;101256.59;5018753;28;45305;-70
2023/08/08 11:01:25;;;;;;;;;1.00;1.00;;;;;28.87;30.78;101261.75;5018685;28;45679;-69
2023/08/08 11:03:52;;;;;;;;;2.67;2.67;;;;;28.78;31.18;101248.47;5000148;28;45881;-69
2023/08/08 11:06:18;;;;;;;;;1.00;1.00;;;;;28.85;31.56;101258.41;5018265;28;45264;-67
2023/08/08 11:08:44;;;;;;;;;4.00;2.00;;;;;28.74;31.95;101250.06;5018242;28;45625;-69
2023/08/08 11:11:09;;;;;;;;;2.00;2.00;;;;;28.75;31.68;101250.88;5018016;28;46004;-69
2023/08/08 11:13:34;;;;;;;;;2.00;2.00;;;;;28.64;32.12;101252.66;5017067;28;45349;-69
2023/08/08 11:16:01;;;;;;;;;1.25;1.25;;;;;28.67;32.24;101260.38;5018074;28;45474;-69
2023/08/08 11:18:27;;;;;;;;;1.50;1.00;;;;;28.05;32.09;101181.19;5017852;28;45376;-69
2023/08/08 11:20:53;;;;;;;;;2.00;1.00;;;;;28.34;32.73;101257.66;5016976;28;45836;-69